Time;durP1;ratioP1;P1;durP2;ratioP2;P2;SDS_P1;SDS_P2;PMS_P1;PMS_P2;Temp;Humidity;BMP_temperature;BMP_pressure;BME280_temperature;BME280_humidity;BME280_pressure;Samples;Min_cycle;Max_cycle;Signal;HPM_P1;HPM_P2
2023/09/11 00:02:15;;;;;;;7.60;3.22;;;;;;;-143.21;59.34;72024.59;5067817;28;20213;-81
2023/09/11 00:04:42;;;;;;;6.75;3.38;;;;;;;-143.21;59.26;72026.56;5070098;28;20243;-81
2023/09/11 00:07:09;;;;;;;4.25;2.92;;;;;;;-143.21;59.34;72026.56;5070680;28;20672;-83
2023/09/11 00:09:36;;;;;;;11.27;3.45;;;;;;;-143.21;59.43;72026.56;5071109;28;20205;-84
2023/09/11 00:12:03;;;;;;;8.55;3.63;;;;;;;-143.21;59.59;72026.56;5070916;28;20201;-82
2023/09/11 00:14:31;;;;;;;6.85;3.47;;;;;;;-143.21;59.66;72036.50;5070887;28;20201;-81
2023/09/11 00:16:58;;;;;;;5.50;3.20;;;;;;;-143.21;59.64;72026.56;5069582;28;20589;-81
2023/09/11 00:19:25;;;;;;;6.32;3.03;;;;;;;-143.21;59.64;72038.47;5069782;28;20216;-81
2023/09/11 00:21:52;;;;;;;7.80;3.33;;;;;;;-143.21;59.64;72038.47;5070714;28;20205;-81
2023/09/11 00:24:18;;;;;;;5.28;3.00;;;;;;;-143.21;59.87;72038.47;5070483;28;20208;-81
2023/09/11 00:26:45;;;;;;;8.43;3.17;;;;;;;-143.21;59.90;72038.47;5070630;28;20205;-81
2023/09/11 00:29:12;;;;;;;5.85;3.20;;;;;;;-143.21;59.95;72050.38;5070300;28;20229;-81
2023/09/11 00:31:40;;;;;;;8.00;3.33;;;;;;;-143.21;60.04;72046.41;5070144;28;20205;-81
2023/09/11 00:34:07;;;;;;;5.97;3.20;;;;;;;-143.21;59.66;72042.44;5070187;28;20205;-81
2023/09/11 00:36:34;;;;;;;6.28;3.20;;;;;;;-143.21;59.78;72038.47;5070098;28;20193;-81
2023/09/11 00:39:01;;;;;;;5.07;3.28;;;;;;;-143.21;59.71;72038.47;5070044;28;20232;-81
2023/09/11 00:41:27;;;;;;;5.72;3.08;;;;;;;-143.21;59.78;72040.44;5070313;28;20657;-81
2023/09/11 00:43:54;;;;;;;9.20;2.92;;;;;;;-143.21;59.87;72042.44;5070436;28;20204;-81
2023/09/11 00:46:21;;;;;;;4.88;3.10;;;;;;;-143.21;59.80;72042.44;5069965;28;20205;-81
2023/09/11 00:48:54;;;;;;;7.32;2.95;;;;;;;-143.21;59.87;72044.41;5069814;28;20657;-81
2023/09/11 00:51:21;;;;;;;6.57;3.17;;;;;;;-143.21;59.97;72050.38;5068653;28;20205;-81
2023/09/11 00:53:48;;;;;;;9.60;3.38;;;;;;;-143.21;60.13;72062.25;5069937;28;20193;-81
2023/09/11 00:56:15;;;;;;;8.85;3.17;;;;;;;-143.21;60.20;72066.22;5070262;28;20200;-83
2023/09/11 00:58:43;;;;;;;7.55;3.40;;;;;;;-143.21;60.15;72066.22;5069304;28;20723;-81
2023/09/11 01:01:11;;;;;;;10.18;3.17;;;;;;;-143.21;60.27;72078.13;5069636;28;20274;-81
2023/09/11 01:03:38;;;;;;;5.60;3.15;;;;;;;-143.21;60.36;72074.16;5069798;28;20205;-81
2023/09/11 01:06:07;;;;;;;9.32;3.10;;;;;;;-143.21;60.60;72078.13;5069419;28;20241;-81
2023/09/11 01:08:34;;;;;;;7.13;3.40;;;;;;;-143.21;60.82;72078.13;5070121;28;20682;-81
2023/09/11 01:11:00;;;;;;;4.50;3.15;;;;;;;-143.21;61.04;72092.00;5069789;28;20567;-81
2023/09/11 01:13:27;;;;;;;6.45;2.90;;;;;;;-143.21;60.94;72090.03;5069739;28;20198;-81
2023/09/11 01:16:01;;;;;;;4.30;3.08;;;;;;;-143.21;60.83;72090.03;5068472;28;20201;-81
2023/09/11 01:18:35;;;;;;;5.75;2.90;;;;;;;-143.21;61.04;72092.00;5069655;28;20217;-81
2023/09/11 01:21:37;;;;;;;5.53;3.05;;;;;;;-143.21;61.13;72099.94;5069213;28;20212;-81
2023/09/11 01:24:32;;;;;;;9.00;2.97;;;;;;;-143.21;61.18;72092.00;5064960;28;20204;-81
2023/09/11 01:27:25;;;;;;;5.68;2.95;;;;;;;-143.21;61.20;72094.00;5066786;28;20205;-80
2023/09/11 01:29:56;;;;;;;7.55;3.00;;;;;;;-143.21;61.20;72094.00;5068207;28;20620;-80
2023/09/11 01:32:25;;;;;;;6.50;2.70;;;;;;;-143.21;61.48;72105.91;5069295;28;20570;-80
2023/09/11 01:34:52;;;;;;;5.25;3.00;;;;;;;-143.21;61.25;72101.94;5069279;28;20205;-81
2023/09/11 01:37:19;;;;;;;7.03;3.10;;;;;;;-143.21;61.73;72109.84;5068805;28;20220;-80
2023/09/11 01:39:46;;;;;;;6.57;3.15;;;;;;;-143.21;61.39;72099.94;5069060;28;20633;-81
2023/09/11 01:42:21;;;;;;;7.40;3.60;;;;;;;-143.21;61.35;72088.03;5068683;28;20205;-81
2023/09/11 01:44:50;;;;;;;8.13;3.00;;;;;;;-143.21;61.67;72099.94;5069115;28;20580;-80
2023/09/11 01:47:22;;;;;;;11.73;3.17;;;;;;;-143.21;61.23;72094.00;5066000;28;20235;-81
2023/09/11 01:49:50;;;;;;;7.10;3.38;;;;;;;-143.21;61.52;72101.94;5066617;28;20558;-81
2023/09/11 01:52:17;;;;;;;7.97;2.95;;;;;;;-143.21;61.55;72105.91;5068709;28;20664;-80
2023/09/11 01:54:44;;;;;;;9.73;3.10;;;;;;;-143.21;61.66;72103.91;5066061;28;20271;-80
2023/09/11 01:57:11;;;;;;;10.52;3.30;;;;;;;-143.21;61.79;72109.84;5068442;28;20333;-81
2023/09/11 01:59:38;;;;;;;6.75;2.60;;;;;;;-143.21;62.04;72117.78;5068587;28;20229;-80
2023/09/11 02:02:06;;;;;;;5.18;2.65;;;;;;;-143.21;62.07;72121.75;5068449;28;20209;-81
2023/09/11 02:04:34;;;;;;;8.18;2.85;;;;;;;-143.21;62.06;72127.72;5068464;28;20244;-81
2023/09/11 02:07:01;;;;;;;6.00;2.60;;;;;;;-143.21;62.15;72133.66;5068811;28;20588;-81
2023/09/11 02:09:28;;;;;;;6.25;3.10;;;;;;;-143.21;62.25;72131.69;5069047;28;20205;-81
2023/09/11 02:11:55;;;;;;;10.32;3.13;;;;;;;-143.21;62.19;72129.69;5068538;28;20664;-81
2023/09/11 02:14:21;;;;;;;8.95;3.17;;;;;;;-143.21;62.19;72141.59;5068191;28;20206;-81
2023/09/11 02:16:48;;;;;;;5.45;2.78;;;;;;;-143.21;62.84;72143.56;5069534;28;20204;-82
2023/09/11 02:19:15;;;;;;;7.82;2.97;;;;;;;-143.21;62.48;72135.63;5068786;28;20221;-80
2023/09/11 02:21:43;;;;;;;6.75;2.97;;;;;;;-143.21;62.26;72137.63;5068241;28;20205;-80
2023/09/11 02:24:10;;;;;;;7.40;3.10;;;;;;;-143.21;62.06;72139.59;5068345;28;20213;-80
2023/09/11 02:26:37;;;;;;;4.32;2.97;;;;;;;-143.21;62.17;72141.59;5068766;28;20209;-81
2023/09/11 02:29:03;;;;;;;8.90;3.22;;;;;;;-143.21;62.32;72141.59;5071744;28;20193;-80
2023/09/11 02:31:30;;;;;;;7.72;3.17;;;;;;;-143.21;62.29;72145.56;5071518;28;20201;-82
2023/09/11 02:33:57;;;;;;;4.63;3.15;;;;;;;-143.21;62.22;72143.56;5071640;28;20197;-82
2023/09/11 02:36:24;;;;;;;6.72;3.45;;;;;;;-143.21;62.73;72145.56;5071581;28;20205;-82
2023/09/11 02:38:52;;;;;;;8.55;2.72;;;;;;;-143.21;62.58;72153.47;5072840;28;20221;-82
2023/09/11 02:41:19;;;;;;;9.13;3.00;;;;;;;-143.21;63.08;72165.38;5072932;28;20208;-82
2023/09/11 02:43:46;;;;;;;6.82;3.20;;;;;;;-143.21;63.36;72173.31;5072897;28;20222;-82
2023/09/11 02:46:13;;;;;;;6.88;2.70;;;;;;;-143.21;63.31;72177.28;5072575;28;20220;-82
2023/09/11 02:48:45;;;;;;;14.38;3.45;;;;;;;-143.21;63.30;72179.25;5073204;28;20205;-81
2023/09/11 02:51:12;;;;;;;6.75;3.13;;;;;;;-143.21;63.79;72185.22;5071064;28;20376;-82
2023/09/11 02:53:39;;;;;;;5.18;2.60;;;;;;;-143.21;63.62;72173.31;5070900;28;20212;-82
2023/09/11 02:56:07;;;;;;;5.70;2.75;;;;;;;-143.21;63.54;72167.38;5071389;28;20209;-82
2023/09/11 02:58:34;;;;;;;7.15;2.83;;;;;;;-143.21;63.43;72167.38;5072704;28;20236;-82
2023/09/11 03:01:02;;;;;;;7.78;3.10;;;;;;;-143.21;63.38;72175.31;5072061;28;20205;-82
2023/09/11 03:03:29;;;;;;;5.55;2.80;;;;;;;-143.21;63.46;72173.31;5071932;28;20208;-80
2023/09/11 03:05:57;;;;;;;7.65;3.30;;;;;;;-143.21;63.86;72187.19;5071057;28;20229;-79
2023/09/11 03:08:24;;;;;;;5.00;3.22;;;;;;;-143.21;64.08;72193.16;5071420;28;20221;-79
2023/09/11 03:10:51;;;;;;;4.88;3.20;;;;;;;-143.21;63.93;72189.19;5071419;28;20208;-79
2023/09/11 03:13:19;;;;;;;7.28;2.88;;;;;;;-143.21;64.17;72199.09;5071896;28;20205;-79
2023/09/11 03:15:46;;;;;;;7.53;2.83;;;;;;;-143.21;64.31;72203.06;5068337;28;20216;-79
2023/09/11 03:18:13;;;;;;;6.38;3.17;;;;;;;-143.21;64.38;72205.03;5071546;28;20229;-79
2023/09/11 03:20:40;;;;;;;7.60;3.08;;;;;;;-143.21;64.38;72205.03;5071455;28;20205;-81
2023/09/11 03:23:07;;;;;;;6.97;3.45;;;;;;;-143.21;64.73;72211.00;5070837;28;20201;-78
2023/09/11 03:25:35;;;;;;;7.97;4.13;;;;;;;-143.21;64.64;72218.94;5071502;28;20215;-80
2023/09/11 03:28:02;;;;;;;9.80;4.80;;;;;;;-143.21;64.83;72224.88;5071290;28;20573;-80
2023/09/11 03:30:30;;;;;;;10.60;4.70;;;;;;;-143.21;65.98;72252.63;5071059;28;20205;-80
2023/09/11 03:32:58;;;;;;;12.20;5.40;;;;;;;-143.21;65.66;72252.63;5070188;28;20203;-80
2023/09/11 03:35:25;;;;;;;13.77;4.80;;;;;;;-143.21;66.43;72268.50;5070606;28;20712;-80
2023/09/11 03:37:52;;;;;;;8.13;4.27;;;;;;;-143.21;66.59;72280.41;5070661;28;20233;-79
2023/09/11 03:40:20;;;;;;;18.57;4.50;;;;;;;-143.21;66.46;72276.44;5070326;28;20221;-79
2023/09/11 03:42:47;;;;;;;21.17;4.30;;;;;;;-143.21;66.19;72268.50;5071167;28;20203;-79
2023/09/11 03:45:14;;;;;;;10.17;4.10;;;;;;;-143.21;66.82;72286.34;5070954;28;20299;-80
2023/09/11 03:47:42;;;;;;;10.90;4.03;;;;;;;-143.21;66.69;72284.38;5071042;28;20201;-80
2023/09/11 03:50:10;;;;;;;13.27;4.80;;;;;;;-143.21;66.98;72302.22;5070555;28;20216;-80
2023/09/11 03:52:37;;;;;;;10.73;4.60;;;;;;;-143.21;67.11;72306.19;5070845;28;20204;-79
2023/09/11 03:55:05;;;;;;;9.70;4.40;;;;;;;-143.21;67.42;72312.13;5070571;28;20209;-79
2023/09/11 03:57:31;;;;;;;16.23;4.73;;;;;;;-143.21;67.57;72324.03;5070243;28;20308;-79
2023/09/11 03:59:58;;;;;;;15.20;4.93;;;;;;;-143.21;67.60;72322.06;5070406;28;20225;-81
2023/09/11 04:02:25;;;;;;;11.47;4.97;;;;;;;-143.21;67.52;72326.00;5071163;28;20201;-81
2023/09/11 04:04:53;;;;;;;8.77;4.73;;;;;;;-143.21;67.01;72320.06;5071010;28;20229;-81
2023/09/11 04:07:20;;;;;;;14.87;5.47;;;;;;;-143.21;67.06;72328.00;5070832;28;20201;-81
2023/09/11 04:09:47;;;;;;;18.20;5.33;;;;;;;-143.21;67.25;72335.94;5070944;28;20197;-81
2023/09/11 04:12:16;;;;;;;11.60;5.43;;;;;;;-143.21;67.29;72331.97;5070734;28;20209;-81
2023/09/11 04:14:43;;;;;;;6.97;4.93;;;;;;;-143.21;67.22;72324.03;5067412;28;20573;-81
2023/09/11 04:17:11;;;;;;;16.97;5.50;;;;;;;-143.21;67.57;72349.81;5070645;28;20209;-81
2023/09/11 04:19:38;;;;;;;11.67;5.60;;;;;;;-143.21;67.93;72361.72;5069168;28;21491;-79
2023/09/11 04:22:06;;;;;;;11.50;5.20;;;;;;;-143.21;68.18;72361.72;5068727;28;20209;-79
2023/09/11 04:24:33;;;;;;;11.23;5.27;;;;;;;-143.21;68.40;72365.69;5069084;28;20201;-79
2023/09/11 04:27:00;;;;;;;17.07;6.07;;;;;;;-143.21;67.99;72359.72;5068951;28;20279;-79
2023/09/11 04:29:29;;;;;;;15.10;6.37;;;;;;;-143.21;68.27;72367.66;5069951;28;20216;-78
2023/09/11 04:31:56;;;;;;;16.97;6.00;;;;;;;-143.21;68.21;72367.66;5069086;28;20232;-78
2023/09/11 04:34:22;;;;;;;11.93;6.27;;;;;;;-143.21;68.31;72369.66;5069300;28;20213;-78
2023/09/11 04:36:49;;;;;;;16.33;5.70;;;;;;;-143.21;68.25;72365.69;5069807;28;20239;-79
2023/09/11 04:39:17;;;;;;;23.33;6.40;;;;;;;-143.21;68.30;72359.72;5066896;28;20223;-78
2023/09/11 04:41:44;;;;;;;26.13;7.33;;;;;;;-143.21;68.32;72361.72;5069552;28;20201;-79
2023/09/11 04:44:11;;;;;;;19.07;7.00;;;;;;;-143.21;68.10;72357.75;5069428;28;20215;-79
2023/09/11 04:46:39;;;;;;;22.20;8.33;;;;;;;-143.21;68.47;72371.63;5069442;28;20681;-79
2023/09/11 04:49:05;;;;;;;24.23;9.60;;;;;;;-143.21;68.83;72365.69;5069003;28;20205;-79
2023/09/11 04:51:32;;;;;;;24.57;8.70;;;;;;;-143.21;68.68;72357.75;5069714;28;20228;-79
2023/09/11 04:53:59;;;;;;;22.30;7.70;;;;;;;-143.21;68.60;72351.78;5069124;28;20267;-80
2023/09/11 04:56:27;;;;;;;13.90;7.10;;;;;;;-143.21;68.59;72349.81;5069294;28;20212;-78
2023/09/11 04:58:54;;;;;;;17.70;6.63;;;;;;;-143.21;68.79;72339.91;5069061;28;20225;-79
2023/09/11 05:01:21;;;;;;;18.53;10.13;;;;;;;-143.21;67.95;72324.03;5069186;28;20204;-80
2023/09/11 05:03:48;;;;;;;20.13;9.00;;;;;;;-143.21;67.24;72324.03;5066015;28;20213;-78
2023/09/11 05:06:15;;;;;;;25.87;9.03;;;;;;;-143.21;67.59;72331.97;5069150;28;20595;-80
2023/09/11 05:08:42;;;;;;;17.63;7.33;;;;;;;-143.21;67.48;72328.00;5069365;28;20691;-80
2023/09/11 05:11:09;;;;;;;15.10;7.10;;;;;;;-143.21;67.50;72312.13;5068579;28;20213;-79
2023/09/11 05:13:43;;;;;;;18.80;7.37;;;;;;;-143.21;67.25;72312.13;5068962;28;20223;-79
2023/09/11 05:16:10;;;;;;;15.97;6.73;;;;;;;-143.21;67.43;72308.16;5069452;28;20810;-79
2023/09/11 05:18:37;;;;;;;20.80;7.40;;;;;;;-143.21;67.72;72312.13;5069077;28;21091;-79
2023/09/11 05:21:04;;;;;;;20.67;7.57;;;;;;;-143.21;67.63;72314.13;5068454;28;20206;-80
2023/09/11 05:23:32;;;;;;;15.20;7.37;;;;;;;-143.21;67.58;72304.19;5069356;28;20204;-79
2023/09/11 05:25:59;;;;;;;16.40;7.27;;;;;;;-143.21;67.46;72292.31;5069159;28;20288;-79
2023/09/11 05:28:26;;;;;;;15.30;7.43;;;;;;;-143.21;66.84;72274.47;5068743;28;20209;-79
2023/09/11 05:30:54;;;;;;;11.00;5.73;;;;;;;-143.21;66.95;72284.38;5069045;28;20197;-80
2023/09/11 05:33:38;;;;;;;12.10;5.80;;;;;;;-143.21;66.81;72272.47;5068866;28;20201;-80
2023/09/11 05:36:21;;;;;;;11.97;5.30;;;;;;;-143.21;67.06;72286.34;5068693;28;20209;-80
2023/09/11 05:38:59;;;;;;;15.83;5.97;;;;;;;-143.21;67.30;72304.19;5066475;28;20243;-81
2023/09/11 05:41:25;;;;;;;14.23;5.93;;;;;;;-143.21;68.14;72310.16;5068913;28;20929;-80
2023/09/11 05:43:52;;;;;;;16.27;5.97;;;;;;;-143.21;68.21;72300.25;5069363;28;20297;-80
2023/09/11 05:46:20;;;;;;;14.70;5.83;;;;;;;-143.21;67.48;72284.38;5068964;28;20216;-80
2023/09/11 05:48:47;;;;;;;12.53;6.20;;;;;;;-143.21;67.50;72288.34;5068899;28;20202;-81
2023/09/11 05:51:15;;;;;;;14.40;5.20;;;;;;;-143.21;67.95;72288.34;5068947;28;20212;-84
2023/09/11 05:53:42;;;;;;;13.40;6.57;;;;;;;-143.21;67.58;72272.47;5069719;28;20201;-84
2023/09/11 05:56:08;;;;;;;13.83;6.40;;;;;;;-143.21;67.79;72278.41;5074611;28;20247;-84
2023/09/11 05:58:35;;;;;;;12.40;4.80;;;;;;;-143.21;67.88;72268.50;5067035;28;20302;-83
2023/09/11 06:01:04;;;;;;;11.50;4.80;;;;;;;-143.21;67.08;72254.63;5069210;28;20225;-83
2023/09/11 06:03:32;;;;;;;7.70;4.73;;;;;;;-143.21;67.15;72256.59;5071999;28;20209;-83
2023/09/11 06:06:04;;;;;;;11.20;4.83;;;;;;;-143.21;67.48;72248.66;5073236;28;20233;-83
2023/09/11 06:08:32;;;;;;;12.53;5.03;;;;;;;-143.21;67.11;72246.69;5073271;28;20224;-84
2023/09/11 06:10:59;;;;;;;11.93;4.90;;;;;;;-143.21;66.95;72242.72;5073221;28;20577;-83
2023/09/11 06:13:26;;;;;;;7.93;5.07;;;;;;;-143.21;66.88;72230.81;5073255;28;20248;-82
2023/09/11 06:15:53;;;;;;;10.37;5.00;;;;;;;-143.21;66.42;72226.84;5072876;28;20193;-82
2023/09/11 06:18:20;;;;;;;9.98;5.05;;;;;;;-143.21;66.48;72226.84;5073583;28;20201;-83
2023/09/11 06:20:48;;;;;;;12.13;4.97;;;;;;;-143.21;66.44;72214.97;5073110;28;20229;-81
2023/09/11 06:23:15;;;;;;;11.20;4.53;;;;;;;-143.21;66.10;72205.03;5073634;28;20214;-83
2023/09/11 06:25:42;;;;;;;9.23;5.03;;;;;;;-143.21;65.57;72199.09;5072605;28;20783;-83
2023/09/11 06:28:09;;;;;;;10.23;4.57;;;;;;;-143.21;65.33;72191.16;5073701;28;20594;-83
2023/09/11 06:30:36;;;;;;;13.60;5.45;;;;;;;-143.21;65.20;72185.22;5070319;28;20205;-81
2023/09/11 06:33:03;;;;;;;9.38;5.03;;;;;;;-143.21;64.17;72173.31;5071998;28;20201;-83
2023/09/11 06:35:30;;;;;;;10.10;5.45;;;;;;;-143.21;63.79;72153.47;5072669;28;20205;-82
2023/09/11 06:37:58;;;;;;;10.07;4.67;;;;;;;-143.21;63.76;72153.47;5072379;28;20295;-82
2023/09/11 06:40:25;;;;;;;12.57;5.30;;;;;;;-143.21;63.76;72155.47;5070891;28;20236;-81
2023/09/11 06:42:52;;;;;;;13.98;4.82;;;;;;;-143.21;63.41;72149.53;5072019;28;20263;-81
2023/09/11 06:45:22;;;;;;;10.43;5.35;;;;;;;-143.21;63.61;72143.56;5067833;28;20229;-83
2023/09/11 06:47:58;;;;;;;11.10;5.40;;;;;;;-143.21;63.44;72141.59;5070394;28;20205;-84
2023/09/11 06:50:26;;;;;;;9.23;5.20;;;;;;;-143.21;62.91;72131.69;5071565;28;20255;-86
2023/09/11 06:55:35;;;;;;;12.90;5.40;;;;;;;-143.21;62.78;72088.03;5070637;28;20598;-84
2023/09/11 06:58:05;;;;;;;10.65;6.07;;;;;;;-143.21;61.81;72072.19;5069232;28;20661;-85
2023/09/11 07:00:32;;;;;;;9.50;5.50;;;;;;;-143.21;61.35;72070.19;5067179;28;20730;-85
2023/09/11 07:02:59;;;;;;;15.02;5.75;;;;;;;-143.21;61.39;72064.25;5071323;28;20205;-86
2023/09/11 07:05:27;;;;;;;13.93;6.20;;;;;;;-143.21;61.13;72050.38;5070949;28;20248;-86
2023/09/11 07:07:54;;;;;;;18.02;6.38;;;;;;;-143.21;60.97;72054.34;5071174;28;20213;-87
2023/09/11 07:10:24;;;;;;;9.45;5.50;;;;;;;-143.21;60.29;72040.44;5075892;28;20197;-87
2023/09/11 07:12:59;;;;;;;14.27;6.43;;;;;;;-143.21;60.34;72042.44;5070964;28;20204;-86
2023/09/11 07:15:26;;;;;;;12.55;6.65;;;;;;;-143.21;60.50;72042.44;5069111;28;20205;-85
2023/09/11 07:17:53;;;;;;;13.00;6.35;;;;;;;-143.21;60.59;72034.50;5069726;28;20211;-85
2023/09/11 07:20:21;;;;;;;13.30;5.93;;;;;;;-143.21;60.57;72022.59;5070586;28;20778;-87
2023/09/11 07:22:49;;;;;;;15.05;6.18;;;;;;;-143.21;59.29;71988.91;5071647;28;20837;-88
2023/09/11 07:25:17;;;;;;;12.27;5.53;;;;;;;-143.21;59.06;71965.09;5071857;28;20205;-85
2023/09/11 07:27:44;;;;;;;14.32;6.00;;;;;;;-143.21;58.63;71967.09;5067925;28;20201;-86
2023/09/11 07:30:15;;;;;;;14.32;5.75;;;;;;;-143.21;58.58;71961.13;5071430;28;20205;-86
2023/09/11 07:32:42;;;;;;;12.30;5.80;;;;;;;-143.21;58.40;71955.19;5071104;28;20208;-85
2023/09/11 07:35:09;;;;;;;15.75;5.82;;;;;;;-143.21;58.38;71953.19;5069969;28;20209;-85
2023/09/11 07:37:48;;;;;;;16.80;5.65;;;;;;;-143.21;58.03;71957.16;5070384;28;21195;-85
2023/09/11 07:40:24;;;;;;;10.77;5.60;;;;;;;-143.21;57.61;71951.22;5071243;28;20225;-86
2023/09/11 07:42:56;;;;;;;10.65;4.97;;;;;;;-143.21;57.44;71943.28;5070644;28;20279;-88
2023/09/11 07:45:24;;;;;;;14.20;5.10;;;;;;;-143.21;57.08;71937.34;5070185;28;20750;-87
2023/09/11 07:47:57;;;;;;;14.32;5.43;;;;;;;-143.21;56.61;71925.44;5067942;28;20201;-85
2023/09/11 07:50:25;;;;;;;11.90;5.78;;;;;;;-143.21;55.28;71911.56;5070527;28;20204;-88
2023/09/11 07:53:00;;;;;;;12.07;5.65;;;;;;;-143.21;55.07;71883.81;5070776;28;20197;-87
2023/09/11 07:55:27;;;;;;;18.48;5.70;;;;;;;-143.21;54.41;71848.09;5070342;28;20197;-89
2023/09/11 07:57:56;;;;;;;11.73;6.10;;;;;;;-143.21;54.30;71848.09;5070478;28;20201;-86
2023/09/11 08:00:30;;;;;;;13.63;7.28;;;;;;;-143.21;54.43;71842.16;5070634;28;20223;-90
2023/09/11 08:02:57;;;;;;;14.32;5.78;;;;;;;-143.21;55.04;71846.13;5072559;28;20626;-88
2023/09/11 08:05:24;;;;;;;17.52;6.10;;;;;;;-143.21;55.19;71842.16;5071837;28;20234;-88
2023/09/11 08:07:52;;;;;;;13.90;5.40;;;;;;;-143.21;54.09;71822.34;5077196;28;20204;-90
2023/09/11 08:10:19;;;;;;;14.07;5.32;;;;;;;-143.21;53.02;71812.41;5073300;28;20595;-90
2023/09/11 08:12:45;;;;;;;11.38;5.20;;;;;;;-143.21;51.83;71792.59;5071664;28;21047;-85
2023/09/11 08:15:14;;;;;;;20.45;5.25;;;;;;;-143.21;51.88;71780.69;5070871;28;20257;-85
2023/09/11 08:17:42;;;;;;;9.15;4.93;;;;;;;-143.21;51.99;71772.75;5070884;28;20284;-85
2023/09/11 08:20:10;;;;;;;12.23;4.95;;;;;;;-143.21;52.03;71764.81;5070252;28;20236;-85
2023/09/11 08:22:39;;;;;;;14.70;4.78;;;;;;;-143.21;50.83;71756.91;5071069;28;21277;-84
2023/09/11 08:25:06;;;;;;;13.25;4.63;;;;;;;-143.21;50.32;71735.09;5070454;28;20212;-84
2023/09/11 08:27:33;;;;;;;13.77;4.90;;;;;;;-143.21;50.04;71729.13;5070429;28;20259;-84
2023/09/11 08:30:00;;;;;;;17.42;4.70;;;;;;;-143.21;49.13;71705.34;5070433;28;20675;-84
2023/09/11 08:32:27;;;;;;;15.05;4.63;;;;;;;-143.21;49.28;71699.41;5070142;28;20201;-84
2023/09/11 08:34:56;;;;;;;20.40;4.47;;;;;;;-143.21;49.15;71693.44;5072013;28;20571;-84
2023/09/11 08:37:24;;;;;;;14.23;4.68;;;;;;;-143.21;48.29;71673.63;5070872;28;20201;-85
2023/09/11 08:39:51;;;;;;;13.35;4.90;;;;;;;-143.21;47.69;71659.75;5070927;28;20263;-85
2023/09/11 08:42:18;;;;;;;11.45;4.22;;;;;;;-143.21;47.68;71639.91;5068871;28;20209;-84
2023/09/11 08:44:45;;;;;;;12.35;4.35;;;;;;;-143.21;46.53;71622.06;5066490;28;20208;-85
2023/09/11 08:47:13;;;;;;;9.85;3.90;;;;;;;-143.21;45.71;71598.28;5068929;28;20193;-86
2023/09/11 08:49:43;;;;;;;7.90;3.97;;;;;;;-143.21;44.82;71566.56;5069840;28;20216;-83
2023/09/11 08:52:14;;;;;;;8.77;4.40;;;;;;;-143.21;44.82;71538.78;5069816;28;20202;-85
2023/09/11 08:54:43;;;;;;;7.03;4.03;;;;;;;-143.21;45.12;71528.88;5069536;28;20224;-84
2023/09/11 08:57:12;;;;;;;11.25;4.68;;;;;;;-143.21;45.17;71509.06;5069246;28;21117;-85
2023/09/11 08:59:42;;;;;;;10.70;3.90;;;;;;;-143.21;44.02;71499.13;5069651;28;20815;-84
2023/09/11 09:02:09;;;;;;;8.30;3.70;;;;;;;-143.21;44.39;71485.25;5070334;28;20219;-84
2023/09/11 09:04:37;;;;;;;11.85;4.10;;;;;;;-143.21;43.97;71461.47;5069390;28;20630;-84
2023/09/11 09:07:06;;;;;;;9.73;4.57;;;;;;;-143.21;43.62;71441.63;5068730;28;20201;-83
2023/09/11 09:09:34;;;;;;;11.70;4.00;;;;;;;-143.21;43.36;71419.84;5068953;28;20194;-82
2023/09/11 09:12:03;;;;;;;13.02;4.40;;;;;;;-143.21;43.06;71405.94;5068416;28;20205;-87
2023/09/11 09:14:32;;;;;;;10.15;4.25;;;;;;;-143.21;42.68;71378.19;5067051;28;20229;-82
2023/09/11 09:16:58;;;;;;;12.90;4.35;;;;;;;-143.21;41.82;71352.44;5068320;28;20683;-83
2023/09/11 09:19:25;;;;;;;9.23;4.18;;;;;;;-143.21;41.82;71330.63;5066630;28;20205;-84
2023/09/11 09:22:12;;;;;;;7.22;4.22;;;;;;;-143.21;41.61;71300.88;5064307;28;20687;-80
2023/09/11 09:24:49;;;;;;;10.52;4.35;;;;;;;-143.21;40.85;71275.09;5060392;28;20216;-80
2023/09/11 09:27:16;;;;;;;9.95;4.40;;;;;;;-143.21;40.39;71239.41;5067831;28;20197;-82
2023/09/11 09:29:43;;;;;;;12.18;4.43;;;;;;;-143.21;39.68;71217.59;5068902;28;20568;-83
2023/09/11 09:32:10;;;;;;;10.55;4.40;;;;;;;-143.21;38.98;71187.88;5067205;28;20217;-82
2023/09/11 09:34:42;;;;;;;5.57;3.90;;;;;;;-143.21;39.26;71166.06;5067448;28;20209;-83
2023/09/11 09:37:16;;;;;;;11.15;4.60;;;;;;;-143.21;38.47;71142.28;5067611;28;20208;-83
2023/09/11 09:39:46;;;;;;;12.23;4.32;;;;;;;-143.21;38.78;71126.41;5065810;28;20207;-84
2023/09/11 09:42:13;;;;;;;11.10;4.18;;;;;;;-143.21;38.86;71106.59;5069637;28;20217;-83
2023/09/11 09:44:41;;;;;;;9.88;4.03;;;;;;;-143.21;37.93;71094.69;5067797;28;20202;-84
2023/09/11 09:47:10;;;;;;;16.17;4.18;;;;;;;-143.21;37.65;71090.72;5068048;28;20676;-84
2023/09/11 09:49:44;;;;;;;15.32;4.28;;;;;;;-143.21;37.87;71070.91;5068611;28;20673;-84
2023/09/11 09:52:12;;;;;;;8.10;4.40;;;;;;;-143.21;37.55;71043.16;5068281;28;20222;-82
2023/09/11 09:54:46;;;;;;;6.18;4.10;;;;;;;-143.21;37.26;71015.41;5067516;28;20220;-82
2023/09/11 09:57:15;;;;;;;6.82;4.50;;;;;;;-143.21;36.97;70993.59;5068237;28;20977;-82
2023/09/11 09:59:43;;;;;;;11.23;4.75;;;;;;;-143.21;36.91;70967.81;5068375;28;20266;-82
2023/09/11 10:02:12;;;;;;;6.82;4.30;;;;;;;-143.21;36.45;70944.03;5062122;28;20639;-81
2023/09/11 10:04:39;;;;;;;12.45;4.30;;;;;;;-143.21;35.63;70934.13;5064372;28;21109;-81
2023/09/11 10:07:06;;;;;;;11.07;4.07;;;;;;;-143.21;35.79;70902.41;5063556;28;20201;-81
2023/09/11 10:09:34;;;;;;;8.40;3.80;;;;;;;-143.21;35.60;70876.63;5065779;28;20768;-80
2023/09/11 10:12:11;;;;;;;10.68;4.25;;;;;;;-143.21;35.03;70848.88;5067788;28;20209;-82
2023/09/11 10:14:41;;;;;;;9.63;4.10;;;;;;;-143.21;34.35;70821.13;5062859;28;20207;-80
2023/09/11 10:17:08;;;;;;;12.98;3.97;;;;;;;-143.21;34.35;70797.34;5063007;28;20214;-80
2023/09/11 10:19:37;;;;;;;16.38;4.13;;;;;;;-143.21;34.26;70771.56;5067030;28;20216;-80
2023/09/11 10:22:05;;;;;;;10.50;3.90;;;;;;;-143.21;33.91;70743.81;5066891;28;20232;-76
2023/09/11 10:24:32;;;;;;;8.85;3.33;;;;;;;-143.21;33.29;70722.03;5067140;28;20694;-81
2023/09/11 10:27:03;;;;;;;7.55;3.67;;;;;;;-143.21;32.92;70704.19;5068460;28;20275;-83
2023/09/11 10:29:42;;;;;;;12.45;4.20;;;;;;;-143.21;32.66;70680.38;5067919;28;20203;-83
2023/09/11 10:32:15;;;;;;;7.60;3.92;;;;;;;-143.21;32.41;70678.41;5068267;28;20691;-85
2023/09/11 10:34:42;;;;;;;7.68;3.40;;;;;;;-143.21;32.68;70652.66;5068810;28;20853;-83
2023/09/11 10:37:09;;;;;;;8.48;3.60;;;;;;;-143.21;32.29;70640.75;5067211;28;20707;-83
2023/09/11 10:39:38;;;;;;;7.28;3.35;;;;;;;-143.21;32.02;70618.94;5067527;28;20213;-84
2023/09/11 10:42:05;;;;;;;12.57;3.60;;;;;;;-143.21;31.89;70618.94;5068125;28;20236;-83
2023/09/11 10:44:36;;;;;;;11.60;4.03;;;;;;;-143.21;31.75;70597.13;5064795;28;20198;-82
2023/09/11 10:47:05;;;;;;;11.90;3.55;;;;;;;-143.21;31.83;70599.13;5067556;28;20292;-78
2023/09/11 10:49:37;;;;;;;10.15;3.40;;;;;;;-143.21;31.74;70601.09;5069561;28;20337;-80
2023/09/11 10:52:06;;;;;;;6.03;3.40;;;;;;;-143.21;31.52;70593.19;5070630;28;20225;-80
2023/09/11 10:54:32;;;;;;;8.52;3.65;;;;;;;-143.21;30.91;70563.44;5069592;28;20209;-79
2023/09/11 10:57:00;;;;;;;9.52;3.33;;;;;;;-143.21;31.08;70561.47;5069065;28;20208;-79
2023/09/11 10:59:27;;;;;;;7.43;3.67;;;;;;;-143.21;30.73;70567.41;5068405;28;20197;-78
2023/09/11 11:01:55;;;;;;;6.53;3.08;;;;;;;-143.21;30.33;70549.56;5069346;28;20306;-79
2023/09/11 11:04:24;;;;;;;7.18;3.28;;;;;;;-143.21;30.38;70519.84;5069194;28;20229;-78
2023/09/11 11:06:58;;;;;;;12.43;3.63;;;;;;;-143.21;30.25;70511.91;5068498;28;20193;-81
2023/09/11 11:09:29;;;;;;;8.20;3.58;;;;;;;-143.21;30.10;70515.88;5068854;28;20200;-80
2023/09/11 11:12:04;;;;;;;6.22;3.22;;;;;;;-143.21;29.73;70515.88;5069625;28;20201;-78
2023/09/11 11:14:31;;;;;;;5.47;3.30;;;;;;;-143.21;29.81;70494.06;5068800;28;20675;-80
2023/09/11 11:17:03;;;;;;;10.48;3.35;;;;;;;-143.21;29.26;70470.28;5069916;28;20271;-79
2023/09/11 11:19:31;;;;;;;9.38;3.60;;;;;;;-143.21;29.44;70462.34;5069387;28;20275;-80
2023/09/11 11:21:59;;;;;;;5.85;3.17;;;;;;;-143.21;29.08;70440.56;5070113;28;20315;-83